Time;durP1;ratioP1;P1;durP2;ratioP2;P2;SDS_P1;SDS_P2;PMS_P1;PMS_P2;Temp;Humidity;BMP_temperature;BMP_pressure;BME280_temperature;BME280_humidity;BME280_pressure;Samples;Min_cycle;Max_cycle;Signal;HPM_P1;HPM_P2
2022/10/30 00:00:46;;;;;;;6.15;0.80;;;;;;;13.08;100.00;100750.50;5032477;28;20033;-51
2022/10/30 00:03:12;;;;;;;9.20;1.67;;;;;;;13.06;100.00;100749.06;5036057;28;20037;-53
2022/10/30 00:05:47;;;;;;;5.60;0.70;;;;;;;13.03;100.00;100750.28;5031911;28;20544;-53
2022/10/30 00:08:14;;;;;;;12.50;2.65;;;;;;;12.96;100.00;100760.09;5034092;28;20025;-54
2022/10/30 00:10:40;;;;;;;9.18;1.02;;;;;;;12.95;100.00;100754.97;5028641;28;20034;-52
2022/10/30 00:13:06;;;;;;;5.70;1.05;;;;;;;12.96;100.00;100759.25;5034371;28;20050;-52
2022/10/30 00:15:32;;;;;;;8.20;1.85;;;;;;;12.97;100.00;100760.91;5031933;28;20033;-49
2022/10/30 00:17:57;;;;;;;7.78;1.20;;;;;;;13.05;100.00;100766.88;5031875;28;20048;-51
2022/10/30 00:20:22;;;;;;;7.47;1.65;;;;;;;13.06;100.00;100773.00;5033859;28;20026;-51
2022/10/30 00:22:48;;;;;;;6.05;0.90;;;;;;;13.08;100.00;100778.97;5032124;28;20988;-52
2022/10/30 00:25:13;;;;;;;9.80;1.02;;;;;;;13.09;100.00;100777.97;5032198;28;20025;-50
2022/10/30 00:27:38;;;;;;;16.98;3.60;;;;;;;13.12;100.00;100771.41;5029882;28;20037;-51
2022/10/30 00:30:04;;;;;;;5.57;0.47;;;;;;;13.08;100.00;100763.81;5032580;28;20030;-50
2022/10/30 00:32:29;;;;;;;9.93;1.25;;;;;;;13.03;100.00;100760.09;5034075;28;20487;-53
2022/10/30 00:34:55;;;;;;;8.02;2.22;;;;;;;12.98;100.00;100760.69;5033802;28;20029;-53
2022/10/30 00:37:20;;;;;;;11.88;3.45;;;;;;;12.96;100.00;100764.56;5031018;28;20478;-51
2022/10/30 00:39:46;;;;;;;10.27;1.15;;;;;;;12.90;100.00;100752.91;5033416;28;20387;-55
2022/10/30 00:42:13;;;;;;;11.02;1.83;;;;;;;12.81;100.00;100757.59;5034496;28;20121;-53
2022/10/30 00:44:45;;;;;;;12.38;2.05;;;;;;;12.76;100.00;100751.22;5028538;28;20030;-55
2022/10/30 00:47:26;;;;;;;11.75;1.88;;;;;;;12.69;100.00;100748.53;5036068;28;20505;-51
2022/10/30 00:50:01;;;;;;;9.23;1.60;;;;;;;12.61;100.00;100759.34;5035904;28;20040;-54
2022/10/30 00:52:32;;;;;;;5.53;1.70;;;;;;;12.55;100.00;100747.66;5033550;28;20032;-49
2022/10/30 00:55:02;;;;;;;18.88;2.05;;;;;;;12.53;100.00;100751.53;5031679;28;20079;-54
2022/10/30 00:57:28;;;;;;;13.50;1.40;;;;;;;12.47;100.00;100757.59;5027709;28;20037;-52
2022/10/30 00:59:54;;;;;;;6.78;1.02;;;;;;;12.47;100.00;100749.63;5032715;28;20029;-52
2022/10/30 01:02:20;;;;;;;11.77;1.52;;;;;;;12.50;100.00;100743.94;5032959;28;20022;-52
2022/10/30 01:04:48;;;;;;;7.88;1.27;;;;;;;12.49;100.00;100755.59;5035065;28;20030;-54
2022/10/30 01:07:15;;;;;;;11.15;1.33;;;;;;;12.46;100.00;100748.00;5029208;28;20037;-53
2022/10/30 01:09:41;;;;;;;8.48;1.88;;;;;;;12.36;100.00;100751.81;5032304;28;20541;-51
2022/10/30 01:12:07;;;;;;;5.93;1.05;;;;;;;12.34;100.00;100753.88;5038534;28;20029;-50
2022/10/30 01:14:40;;;;;;;10.35;1.67;;;;;;;12.32;100.00;100755.09;5034978;28;20569;-53
2022/10/30 01:17:20;;;;;;;10.82;1.75;;;;;;;12.27;100.00;100752.19;5036166;28;20033;-52
2022/10/30 01:20:20;;;;;;;8.38;1.85;;;;;;;12.25;100.00;100733.78;5039196;28;20060;-51
2022/10/30 01:22:51;;;;;;;5.70;0.80;;;;;;;12.21;100.00;100738.69;5032319;28;20075;-52
2022/10/30 01:25:47;;;;;;;12.75;2.40;;;;;;;12.19;100.00;100739.88;5037638;28;20025;-50
2022/10/30 01:28:43;;;;;;;3.10;0.30;;;;;;;12.14;100.00;100743.13;5032061;28;20565;-55
2022/10/30 01:31:23;;;;;;;8.43;1.38;;;;;;;12.10;100.00;100752.50;5032872;28;20029;-53
2022/10/30 01:34:10;;;;;;;2.25;0.75;;;;;;;12.04;100.00;100749.81;5035518;28;20037;-51
2022/10/30 01:36:48;;;;;;;7.03;0.77;;;;;;;11.95;100.00;100731.34;5038361;28;20040;-49
2022/10/30 01:39:22;;;;;;;3.20;0.10;;;;;;;11.93;100.00;100736.03;5033501;28;20041;-54
2022/10/30 01:41:48;;;;;;;4.72;0.55;;;;;;;11.90;100.00;100741.75;5038695;28;20082;-53
2022/10/30 01:44:20;;;;;;;8.20;2.17;;;;;;;11.91;100.00;100761.97;5033805;28;20029;-53
2022/10/30 01:46:57;;;;;;;8.57;2.08;;;;;;;11.85;100.00;100759.22;5037724;28;20034;-51
2022/10/30 01:49:28;;;;;;;9.90;2.15;;;;;;;11.86;100.00;100764.38;5040131;28;20550;-55
2022/10/30 01:51:56;;;;;;;5.15;0.80;;;;;;;11.88;100.00;100759.69;5036443;28;20116;-49
2022/10/30 01:54:40;;;;;;;3.50;0.47;;;;;;;11.95;100.00;100765.91;5032989;28;20029;-54
2022/10/30 01:57:40;;;;;;;6.82;1.83;;;;;;;11.90;100.00;100757.69;5038457;28;20486;-50
2022/10/30 02:00:08;;;;;;;8.23;1.17;;;;;;;11.82;100.00;100754.28;5037853;28;20028;-54
2022/10/30 02:02:34;;;;;;;6.57;1.92;;;;;;;11.72;100.00;100751.97;5037182;28;20372;-52
2022/10/30 02:05:00;;;;;;;8.35;0.70;;;;;;;11.61;100.00;100757.81;5035433;28;20029;-50
2022/10/30 02:07:25;;;;;;;7.22;1.63;;;;;;;11.53;100.00;100756.09;5032207;28;20036;-52
2022/10/30 02:09:53;;;;;;;6.93;1.40;;;;;;;11.50;100.00;100759.13;5031580;28;20029;-50
2022/10/30 02:12:19;;;;;;;8.65;0.60;;;;;;;11.43;100.00;100745.78;5042730;28;20033;-52
2022/10/30 02:14:49;;;;;;;2.25;0.38;;;;;;;11.41;100.00;100737.22;5040160;28;20021;-55
2022/10/30 02:17:15;;;;;;;20.77;2.28;;;;;;;11.33;100.00;100739.97;5035488;28;20382;-52
2022/10/30 02:19:41;;;;;;;4.78;1.75;;;;;;;11.26;100.00;100744.41;5028074;28;20029;-54
2022/10/30 02:22:07;;;;;;;2.47;0.80;;;;;;;11.23;100.00;100748.28;5042999;28;20390;-52
2022/10/30 02:24:33;;;;;;;6.97;0.68;;;;;;;11.26;100.00;100747.06;5049900;28;20032;-52
2022/10/30 02:26:58;;;;;;;12.45;1.67;;;;;;;11.22;100.00;100733.34;5040296;28;20032;-49
2022/10/30 02:29:24;;;;;;;4.95;0.63;;;;;;;11.19;100.00;100739.03;5046103;28;20111;-50
2022/10/30 02:31:49;;;;;;;8.43;1.35;;;;;;;11.17;100.00;100732.25;5042343;28;20061;-50
2022/10/30 02:34:15;;;;;;;5.55;0.88;;;;;;;11.16;100.00;100726.13;5043285;28;20037;-53
2022/10/30 02:36:41;;;;;;;4.93;0.60;;;;;;;11.14;100.00;100726.31;5034938;28;20698;-50
2022/10/30 02:39:06;;;;;;;8.15;2.50;;;;;;;11.13;100.00;100729.19;5046933;28;20063;-49
2022/10/30 02:41:32;;;;;;;4.55;1.75;;;;;;;11.07;100.00;100730.72;5045358;28;20025;-54
2022/10/30 02:43:57;;;;;;;11.05;1.23;;;;;;;11.00;100.00;100724.56;5038841;28;20025;-52
2022/10/30 02:46:23;;;;;;;7.70;0.93;;;;;;;10.87;100.00;100729.72;5042994;28;20039;-53
2022/10/30 02:48:49;;;;;;;9.13;1.10;;;;;;;10.72;100.00;100721.78;5044232;28;20430;-51
2022/10/30 02:51:14;;;;;;;4.22;1.15;;;;;;;10.59;100.00;100722.44;5043107;28;20989;-49
2022/10/30 02:53:39;;;;;;;4.82;0.52;;;;;;;10.44;100.00;100734.88;5032502;28;20029;-49
2022/10/30 02:56:07;;;;;;;2.38;0.20;;;;;;;10.29;100.00;100712.88;5046568;28;20497;-49
2022/10/30 02:58:33;;;;;;;0.95;0.10;;;;;;;10.14;100.00;100718.13;5040226;28;20371;-52
2022/10/30 03:01:16;;;;;;;4.70;1.75;;;;;;;10.09;100.00;100723.16;5038830;28;20025;-53
2022/10/30 03:03:43;;;;;;;2.40;0.25;;;;;;;10.00;100.00;100722.41;5049214;28;20183;-50
2022/10/30 03:06:10;;;;;;;4.00;0.30;;;;;;;9.97;100.00;100722.78;5039750;28;20021;-54
2022/10/30 03:08:36;;;;;;;7.22;0.88;;;;;;;9.89;100.00;100726.34;5040832;28;20032;-53
2022/10/30 03:11:04;;;;;;;2.40;0.63;;;;;;;9.80;100.00;100722.09;5046146;28;20028;-51
2022/10/30 03:13:31;;;;;;;0.95;0.10;;;;;;;9.76;100.00;100721.66;5041189;28;20122;-51
2022/10/30 03:16:06;;;;;;;3.03;0.35;;;;;;;9.80;100.00;100717.63;5045520;28;20482;-48
2022/10/30 03:18:32;;;;;;;2.03;0.30;;;;;;;9.86;100.00;100720.56;5041033;28;20114;-53
2022/10/30 03:20:59;;;;;;;0.70;0.20;;;;;;;9.79;100.00;100721.28;5038633;28;20025;-49
2022/10/30 03:23:26;;;;;;;5.28;0.60;;;;;;;9.75;100.00;100720.00;5041349;28;20379;-52
2022/10/30 03:25:56;;;;;;;0.63;0.08;;;;;;;9.83;100.00;100717.28;5045993;28;20116;-49
2022/10/30 03:28:23;;;;;;;2.05;0.08;;;;;;;9.93;100.00;100737.38;5046001;28;20050;-51
2022/10/30 03:30:50;;;;;;;3.03;0.30;;;;;;;9.99;100.00;100745.44;5032296;28;20026;-53
2022/10/30 03:33:16;;;;;;;10.85;0.35;;;;;;;10.04;100.00;100742.22;5036221;28;20556;-53
2022/10/30 03:35:44;;;;;;;1.75;0.77;;;;;;;10.17;100.00;100747.75;5038480;28;20085;-51
2022/10/30 03:38:11;;;;;;;8.68;1.60;;;;;;;10.42;100.00;100750.16;5041005;28;20132;-55
2022/10/30 03:40:37;;;;;;;3.38;1.45;;;;;;;11.00;100.00;100748.44;5036080;28;20027;-54
2022/10/30 03:43:02;;;;;;;5.93;1.15;;;;;;;11.27;100.00;100762.78;5030444;28;20120;-51
2022/10/30 03:45:28;;;;;;;7.72;1.15;;;;;;;11.32;100.00;100759.56;5035268;28;20071;-49
2022/10/30 03:47:53;;;;;;;9.32;0.82;;;;;;;11.34;100.00;100765.53;5038186;28;20079;-52
2022/10/30 03:50:18;;;;;;;10.05;1.83;;;;;;;11.38;100.00;100768.63;5034169;28;20565;-52
2022/10/30 03:52:44;;;;;;;5.63;2.47;;;;;;;11.53;100.00;100769.38;5042716;28;20033;-51
2022/10/30 03:55:09;;;;;;;9.48;2.28;;;;;;;11.57;100.00;100768.00;5043115;28;20032;-50
2022/10/30 03:57:38;;;;;;;10.32;1.52;;;;;;;11.64;100.00;100768.88;5034824;28;20510;-49
2022/10/30 04:00:04;;;;;;;8.07;1.85;;;;;;;11.66;100.00;100758.06;5034537;28;20597;-51
2022/10/30 04:02:30;;;;;;;9.00;1.70;;;;;;;11.60;100.00;100756.16;5038237;28;20041;-54
2022/10/30 04:04:55;;;;;;;6.82;1.98;;;;;;;11.53;100.00;100767.53;5035093;28;20812;-55
2022/10/30 04:07:20;;;;;;;9.10;1.33;;;;;;;11.50;100.00;100761.78;5040017;28;20033;-52
2022/10/30 04:09:46;;;;;;;7.38;0.90;;;;;;;11.47;100.00;100764.84;5042050;28;20037;-52
2022/10/30 04:12:11;;;;;;;3.95;1.15;;;;;;;11.43;100.00;100739.66;5033334;28;20383;-51
2022/10/30 04:14:36;;;;;;;4.10;0.50;;;;;;;11.44;100.00;100731.53;5040445;28;20386;-51
2022/10/30 04:17:04;;;;;;;12.90;1.85;;;;;;;11.47;100.00;100731.13;5044497;28;20037;-49
2022/10/30 04:19:30;;;;;;;5.85;0.85;;;;;;;11.47;100.00;100731.13;5045582;28;20044;-49
2022/10/30 04:21:55;;;;;;;6.05;1.40;;;;;;;11.48;100.00;100726.63;5043099;28;20390;-51
2022/10/30 04:24:21;;;;;;;5.05;1.25;;;;;;;11.48;100.00;100726.63;5029745;28;20037;-52
2022/10/30 04:26:46;;;;;;;6.65;1.50;;;;;;;11.47;100.00;100740.94;5040625;28;20064;-51
2022/10/30 04:29:11;;;;;;;6.32;0.93;;;;;;;11.46;100.00;100745.44;5040199;28;20063;-52
2022/10/30 04:31:37;;;;;;;5.88;0.50;;;;;;;11.45;100.00;100733.16;5038567;28;20123;-50
2022/10/30 04:34:02;;;;;;;9.77;0.80;;;;;;;11.46;100.00;100732.16;5037223;28;20021;-49
2022/10/30 04:36:31;;;;;;;5.25;0.40;;;;;;;11.44;100.00;100725.41;5039024;28;20581;-51
2022/10/30 04:38:57;;;;;;;3.85;0.90;;;;;;;11.43;100.00;100726.38;5038052;28;20613;-52
2022/10/30 04:41:22;;;;;;;6.28;1.65;;;;;;;11.46;100.00;100742.78;5037724;28;20029;-53
2022/10/30 04:43:48;;;;;;;7.07;1.13;;;;;;;11.50;100.00;100735.25;5036995;28;20065;-49
2022/10/30 04:46:14;;;;;;;3.25;0.60;;;;;;;11.49;100.00;100725.66;5036751;28;20618;-49
2022/10/30 04:48:39;;;;;;;8.15;0.88;;;;;;;11.50;100.00;100736.06;5039742;28;20305;-51
2022/10/30 04:51:06;;;;;;;5.93;1.27;;;;;;;11.52;100.00;100741.19;5033872;28;20455;-53
2022/10/30 04:53:31;;;;;;;8.07;2.03;;;;;;;11.56;100.00;100731.81;5035230;28;20402;-55
2022/10/30 04:55:56;;;;;;;14.10;1.10;;;;;;;11.58;100.00;100722.63;5040165;28;20037;-51
2022/10/30 04:58:22;;;;;;;11.98;1.35;;;;;;;11.55;100.00;100722.22;5046770;28;20032;-55
2022/10/30 05:00:47;;;;;;;2.08;0.20;;;;;;;11.56;100.00;100714.06;5036707;28;20025;-53
2022/10/30 05:03:21;;;;;;;3.50;0.52;;;;;;;11.54;100.00;100713.44;5034835;28;20044;-52
2022/10/30 05:06:05;;;;;;;0.75;0.73;;;;;;;11.52;100.00;100710.13;5037373;28;20033;-54
2022/10/30 05:08:30;;;;;;;4.75;1.65;;;;;;;11.46;100.00;100708.25;5042708;28;20383;-53
2022/10/30 05:10:56;;;;;;;6.10;0.60;;;;;;;11.45;100.00;100703.94;5032208;28;20036;-50
2022/10/30 05:13:22;;;;;;;5.07;2.38;;;;;;;11.45;100.00;100709.25;5040159;28;20518;-54
2022/10/30 05:15:47;;;;;;;9.38;0.63;;;;;;;11.42;100.00;100714.13;5037292;28;20108;-51
2022/10/30 05:18:12;;;;;;;7.18;1.02;;;;;;;11.39;100.00;100720.66;5038686;28;20101;-51
2022/10/30 05:20:38;;;;;;;5.15;1.60;;;;;;;11.42;100.00;100716.78;5035214;28;20028;-54
2022/10/30 05:23:03;;;;;;;12.32;1.95;;;;;;;11.46;100.00;100713.56;5039967;28;20034;-54
2022/10/30 05:25:29;;;;;;;7.82;0.90;;;;;;;11.47;100.00;100712.53;5039221;28;20044;-52
2022/10/30 05:28:04;;;;;;;10.95;1.40;;;;;;;11.50;100.00;100717.47;5038324;28;20382;-51
2022/10/30 05:30:31;;;;;;;5.13;0.90;;;;;;;11.52;100.00;100718.09;5037663;28;20028;-50
2022/10/30 05:33:01;;;;;;;5.13;0.65;;;;;;;11.50;100.00;100717.47;5043032;28;20073;-50
2022/10/30 05:35:28;;;;;;;9.73;3.33;;;;;;;11.51;100.00;100711.16;5036609;28;20032;-49
2022/10/30 05:37:53;;;;;;;8.15;1.92;;;;;;;11.58;100.00;100724.47;5045441;28;20041;-55
2022/10/30 05:40:18;;;;;;;9.15;1.63;;;;;;;11.60;100.00;100734.91;5037729;28;20529;-53
2022/10/30 05:42:47;;;;;;;7.07;2.42;;;;;;;11.69;100.00;100736.41;5028320;28;20454;-51
2022/10/30 05:45:13;;;;;;;5.50;1.50;;;;;;;11.71;100.00;100745.84;5038021;28;20702;-53
2022/10/30 05:47:39;;;;;;;4.70;0.88;;;;;;;11.69;100.00;100734.56;5033743;28;20037;-53
2022/10/30 05:50:05;;;;;;;11.90;2.03;;;;;;;11.77;100.00;100736.28;5032575;28;20442;-48
2022/10/30 05:52:31;;;;;;;6.97;1.00;;;;;;;11.87;100.00;100743.94;5031815;28;20025;-53
2022/10/30 05:54:56;;;;;;;11.00;2.53;;;;;;;11.87;100.00;100744.75;5038439;28;20458;-53
2022/10/30 05:57:22;;;;;;;6.75;1.08;;;;;;;11.88;100.00;100737.63;5033128;28;20033;-53
2022/10/30 05:59:47;;;;;;;11.27;0.98;;;;;;;11.86;100.00;100751.09;5036151;28;20096;-54
2022/10/30 06:02:12;;;;;;;4.32;1.23;;;;;;;11.87;100.00;100751.91;5032011;28;20517;-51
2022/10/30 06:04:38;;;;;;;9.27;1.83;;;;;;;11.88;100.00;100759.69;5028107;28;20025;-54
2022/10/30 06:07:03;;;;;;;12.23;1.67;;;;;;;11.90;100.00;100764.81;5030937;28;20030;-50
2022/10/30 06:09:28;;;;;;;6.20;1.42;;;;;;;11.88;100.00;100766.84;5037764;28;20033;-48
2022/10/30 06:11:54;;;;;;;11.18;1.75;;;;;;;11.92;100.00;100768.91;5036743;28;20063;-52
2022/10/30 06:14:19;;;;;;;7.53;1.08;;;;;;;11.97;100.00;100769.16;5044971;28;20020;-52
2022/10/30 06:16:46;;;;;;;6.00;1.27;;;;;;;12.02;100.00;100768.59;5039166;28;20437;-55
2022/10/30 06:19:11;;;;;;;4.50;0.63;;;;;;;12.05;100.00;100764.72;5041558;28;20063;-51
2022/10/30 06:21:36;;;;;;;4.80;1.80;;;;;;;12.06;100.00;100763.72;5038675;28;20057;-54
2022/10/30 06:24:02;;;;;;;7.18;1.65;;;;;;;12.05;100.00;100762.06;5041527;28;20021;-53
2022/10/30 06:26:27;;;;;;;5.72;1.45;;;;;;;12.08;100.00;100762.50;5043993;28;20057;-56
2022/10/30 06:28:53;;;;;;;15.63;1.92;;;;;;;12.12;100.00;100762.94;5048679;28;20095;-54
2022/10/30 06:31:18;;;;;;;15.63;2.10;;;;;;;12.13;100.00;100757.44;5041717;28;20074;-56
2022/10/30 06:33:43;;;;;;;5.80;1.00;;;;;;;12.16;100.00;100756.22;5043940;28;20124;-54
2022/10/30 06:36:09;;;;;;;5.03;0.65;;;;;;;12.16;100.00;100753.56;5044279;28;20033;-55
2022/10/30 06:38:34;;;;;;;6.80;1.08;;;;;;;12.19;100.00;100743.34;5040234;28;20048;-49
2022/10/30 06:40:59;;;;;;;11.32;2.38;;;;;;;12.19;100.00;100745.19;5043148;28;20033;-53
2022/10/30 06:43:25;;;;;;;16.98;1.38;;;;;;;12.23;100.00;100738.47;5039602;28;20125;-50
2022/10/30 06:45:50;;;;;;;9.52;0.80;;;;;;;12.23;100.00;100743.78;5040405;28;20022;-50
2022/10/30 06:48:17;;;;;;;6.47;1.20;;;;;;;12.22;100.00;100742.97;5038948;28;20155;-51
2022/10/30 06:50:43;;;;;;;8.50;1.30;;;;;;;12.22;100.00;100744.81;5046676;28;20029;-54
2022/10/30 06:53:08;;;;;;;9.23;1.10;;;;;;;12.21;100.00;100737.84;5043805;28;20036;-49
2022/10/30 06:55:34;;;;;;;20.27;2.47;;;;;;;12.19;100.00;100737.22;5045475;28;20039;-50
2022/10/30 06:57:59;;;;;;;10.52;1.75;;;;;;;12.17;100.00;100741.91;5043604;28;20065;-50
2022/10/30 07:00:25;;;;;;;6.38;1.40;;;;;;;12.16;100.00;100745.59;5042201;28;20055;-52
2022/10/30 07:03:08;;;;;;;7.05;0.98;;;;;;;12.19;100.00;100763.81;5044805;28;20389;-54
2022/10/30 07:05:33;;;;;;;2.13;0.40;;;;;;;12.19;100.00;100761.16;5042491;28;20028;-55
2022/10/30 07:07:59;;;;;;;9.13;0.90;;;;;;;12.17;100.00;100764.00;5041297;28;20033;-55
2022/10/30 07:10:24;;;;;;;7.78;1.08;;;;;;;12.15;100.00;100760.69;5040937;28;20056;-53
2022/10/30 07:12:54;;;;;;;6.95;0.30;;;;;;;12.16;100.00;100766.88;5039738;28;20031;-55
2022/10/30 07:15:19;;;;;;;5.75;1.80;;;;;;;12.19;100.00;100775.25;5042911;28;20029;-49
2022/10/30 07:18:11;;;;;;;7.53;2.15;;;;;;;12.28;100.00;100767.13;5041630;28;20475;-52
2022/10/30 07:20:36;;;;;;;2.67;1.00;;;;;;;12.30;100.00;100768.56;5037258;28;20045;-51
2022/10/30 07:23:02;;;;;;;7.38;1.50;;;;;;;12.34;100.00;100772.50;5038250;28;20118;-52
2022/10/30 07:25:29;;;;;;;2.78;1.02;;;;;;;12.37;100.00;100766.78;5043473;28;20380;-51
2022/10/30 07:27:55;;;;;;;6.90;1.52;;;;;;;12.35;100.00;100760.84;5038877;28;20054;-54
2022/10/30 07:30:24;;;;;;;15.88;1.02;;;;;;;12.37;100.00;100750.81;5042628;28;20076;-51
2022/10/30 07:33:03;;;;;;;6.60;1.25;;;;;;;12.40;100.00;100737.13;5038307;28;20044;-52
2022/10/30 07:35:30;;;;;;;6.45;2.17;;;;;;;12.40;100.00;100747.78;5039871;28;20132;-51
2022/10/30 07:38:01;;;;;;;8.73;1.30;;;;;;;12.43;100.00;100744.72;5037848;28;20033;-55
2022/10/30 07:40:27;;;;;;;10.85;1.55;;;;;;;12.42;100.00;100737.75;5039236;28;20079;-57
2022/10/30 07:42:56;;;;;;;8.60;1.67;;;;;;;12.41;100.00;100724.66;5039243;28;20041;-57
2022/10/30 07:45:22;;;;;;;7.57;1.23;;;;;;;12.38;100.00;100709.09;5041855;28;20025;-58
2022/10/30 07:47:47;;;;;;;9.05;1.40;;;;;;;12.38;100.00;100707.25;5039842;28;20523;-49
2022/10/30 07:50:13;;;;;;;9.70;0.60;;;;;;;12.39;100.00;100708.06;5038125;28;20030;-58
2022/10/30 07:52:38;;;;;;;4.03;0.55;;;;;;;12.40;100.00;100723.84;5034495;28;20086;-58
2022/10/30 07:55:05;;;;;;;5.63;1.00;;;;;;;12.44;100.00;100711.81;5037806;28;20404;-57
2022/10/30 07:57:34;;;;;;;9.68;0.95;;;;;;;12.47;100.00;100715.06;5031754;28;20025;-56
2022/10/30 08:00:00;;;;;;;9.80;2.22;;;;;;;12.49;100.00;100721.81;5037112;28;20029;-53
2022/10/30 08:02:25;;;;;;;6.18;0.38;;;;;;;12.54;100.00;100726.56;5033857;28;20056;-53
2022/10/30 08:04:50;;;;;;;3.47;0.80;;;;;;;12.54;100.00;100731.88;5030706;28;20033;-58
2022/10/30 08:07:16;;;;;;;9.25;0.90;;;;;;;12.55;100.00;100737.00;5033767;28;20029;-56
2022/10/30 08:09:41;;;;;;;6.75;1.25;;;;;;;12.60;100.00;100744.41;5037909;28;20055;-57
2022/10/30 08:12:07;;;;;;;5.60;0.95;;;;;;;12.62;100.00;100732.53;5035901;28;20064;-57
2022/10/30 08:14:33;;;;;;;5.65;0.98;;;;;;;12.63;100.00;100739.50;5045043;28;20475;-59
2022/10/30 08:16:59;;;;;;;8.70;1.63;;;;;;;12.64;100.00;100732.34;5040155;28;20101;-58
2022/10/30 08:19:24;;;;;;;5.30;1.38;;;;;;;12.62;100.00;100739.69;5024684;28;20556;-59
2022/10/30 08:21:49;;;;;;;7.70;1.17;;;;;;;12.62;100.00;100729.03;5031321;28;20075;-60
2022/10/30 08:24:15;;;;;;;6.57;1.40;;;;;;;12.64;100.00;100740.31;5027898;28;20025;-57
2022/10/30 08:26:40;;;;;;;10.73;2.45;;;;;;;12.64;100.00;100741.13;5023950;28;20021;-57
2022/10/30 08:29:06;;;;;;;15.85;2.03;;;;;;;12.66;100.00;100746.25;5033014;28;20057;-60
2022/10/30 08:31:31;;;;;;;10.93;1.15;;;;;;;12.66;100.00;100752.41;5035731;28;20051;-57
2022/10/30 08:33:58;;;;;;;8.95;1.15;;;;;;;12.65;100.00;100756.09;5028417;28;20457;-58
2022/10/30 08:36:23;;;;;;;13.82;1.55;;;;;;;12.65;100.00;100760.59;5027924;28;20130;-58
2022/10/30 08:38:48;;;;;;;5.50;2.15;;;;;;;12.67;100.00;100753.22;5034434;28;20398;-60
2022/10/30 08:41:14;;;;;;;7.55;1.88;;;;;;;12.66;100.00;100744.41;5039433;28;20087;-60
2022/10/30 08:43:39;;;;;;;9.18;1.25;;;;;;;12.66;100.00;100741.75;5040313;28;20072;-57
2022/10/30 08:46:04;;;;;;;11.60;1.23;;;;;;;12.68;100.00;100735.44;5039511;28;20064;-55
2022/10/30 08:48:30;;;;;;;5.60;0.52;;;;;;;12.71;100.00;100725.22;5036782;28;20037;-57
2022/10/30 08:51:02;;;;;;;9.82;0.80;;;;;;;12.77;100.00;100736.88;5032902;28;20068;-60
2022/10/30 08:53:27;;;;;;;6.03;1.27;;;;;;;12.75;100.00;100745.09;5047751;28;20043;-56
2022/10/30 08:55:52;;;;;;;6.85;1.73;;;;;;;12.76;100.00;100748.56;5046816;28;20482;-58
2022/10/30 08:58:18;;;;;;;4.38;1.25;;;;;;;12.79;100.00;100788.06;5044553;28;20038;-59
2022/10/30 09:00:43;;;;;;;9.75;1.23;;;;;;;12.80;100.00;100763.94;5039106;28;20025;-56
2022/10/30 09:03:08;;;;;;;5.03;1.02;;;;;;;12.79;100.00;100766.78;5043510;28;20116;-59
2022/10/30 09:05:36;;;;;;;8.50;1.90;;;;;;;12.80;100.00;100736.47;5038016;28;20033;-58
2022/10/30 09:08:01;;;;;;;8.90;0.57;;;;;;;12.79;100.00;100759.63;5032302;28;20032;-56
2022/10/30 09:10:26;;;;;;;10.32;2.60;;;;;;;12.81;100.00;100768.22;5024195;28;20378;-56
2022/10/30 09:13:00;;;;;;;10.52;1.02;;;;;;;12.85;100.00;100753.50;5034465;28;20552;-59
2022/10/30 09:15:26;;;;;;;3.17;0.75;;;;;;;12.89;100.00;100751.25;5032014;28;20033;-57
2022/10/30 09:17:56;;;;;;;6.50;0.50;;;;;;;12.92;100.00;100734.06;5035025;28;20024;-56
2022/10/30 09:20:21;;;;;;;8.20;1.25;;;;;;;12.97;100.00;100751.09;5038362;28;20108;-56
2022/10/30 09:22:47;;;;;;;5.15;1.23;;;;;;;13.01;100.00;100751.50;5031420;28;20623;-60
2022/10/30 09:25:12;;;;;;;5.35;0.40;;;;;;;13.10;100.00;100758.28;5032506;28;20029;-57
2022/10/30 09:27:38;;;;;;;5.78;1.42;;;;;;;13.17;100.00;100761.78;5029796;28;20110;-58
2022/10/30 09:30:04;;;;;;;5.80;1.42;;;;;;;13.25;100.00;100769.59;5027305;28;20434;-56
2022/10/30 09:32:30;;;;;;;4.38;0.40;;;;;;;13.24;100.00;100751.16;5029974;28;20079;-58
2022/10/30 09:34:55;;;;;;;10.48;0.90;;;;;;;13.25;100.00;100758.13;5037864;28;20067;-59
2022/10/30 09:37:22;;;;;;;5.15;0.35;;;;;;;13.21;100.00;100757.69;5033450;28;20040;-58
2022/10/30 09:39:47;;;;;;;11.25;0.47;;;;;;;13.18;100.00;100744.78;5037238;28;20351;-55
2022/10/30 09:42:37;;;;;;;4.50;0.43;;;;;;;13.18;100.00;100742.13;5038466;28;20029;-57
2022/10/30 09:45:17;;;;;;;1.30;0.55;;;;;;;13.24;100.00;100737.81;5045433;28;20033;-57
2022/10/30 09:48:20;;;;;;;3.85;0.70;;;;;;;13.29;100.00;100724.75;5031240;28;20030;-60
2022/10/30 09:51:08;;;;;;;6.25;1.42;;;;;;;13.26;100.00;100712.66;5038641;28;20051;-53
2022/10/30 09:53:44;;;;;;;5.15;1.15;;;;;;;13.28;100.00;100705.31;5031075;28;20387;-54
2022/10/30 09:56:29;;;;;;;2.47;0.57;;;;;;;13.33;100.00;100703.88;5030247;28;20049;-52
2022/10/30 09:59:13;;;;;;;6.32;0.50;;;;;;;13.34;100.00;100703.66;5044003;28;20534;-56
2022/10/30 10:02:01;;;;;;;7.70;1.45;;;;;;;13.38;100.00;100698.78;5034877;28;20047;-59
2022/10/30 10:04:41;;;;;;;5.22;1.30;;;;;;;13.38;100.00;100690.78;5031645;28;20088;-55
2022/10/30 10:07:17;;;;;;;4.13;0.55;;;;;;;13.37;100.00;100683.78;5041261;28;20036;-56
2022/10/30 10:09:43;;;;;;;5.38;0.45;;;;;;;13.34;100.00;100679.69;5039800;28;20069;-54
2022/10/30 10:12:18;;;;;;;6.40;0.65;;;;;;;13.41;100.00;100677.06;5032256;28;20033;-58
2022/10/30 10:14:47;;;;;;;4.28;0.50;;;;;;;13.49;100.00;100667.00;5036134;28;20032;-57
2022/10/30 10:17:18;;;;;;;7.30;1.35;;;;;;;13.60;100.00;100670.88;5035118;28;20075;-57
2022/10/30 10:19:52;;;;;;;11.93;1.00;;;;;;;13.69;100.00;100684.84;5033013;28;20037;-57
2022/10/30 10:22:41;;;;;;;6.40;0.85;;;;;;;13.79;100.00;100687.09;5028219;28;20096;-59
2022/10/30 10:25:13;;;;;;;7.32;0.75;;;;;;;13.87;100.00;100677.00;5041167;28;20029;-57
2022/10/30 10:28:15;;;;;;;7.75;0.30;;;;;;;13.98;100.00;100666.75;5041815;28;20018;-56
2022/10/30 10:30:40;;;;;;;3.10;0.73;;;;;;;13.99;100.00;100669.19;5039173;28;20037;-59
2022/10/30 10:33:28;;;;;;;2.20;0.70;;;;;;;14.09;100.00;100666.09;5036278;28;20033;-58
2022/10/30 10:36:08;;;;;;;8.43;1.15;;;;;;;14.18;100.00;100675.50;5043045;28;20337;-57
2022/10/30 10:38:51;;;;;;;6.43;1.48;;;;;;;14.26;100.00;100659.28;5039797;28;20062;-59
2022/10/30 10:41:28;;;;;;;8.15;1.20;;;;;;;14.37;100.00;100671.94;5042319;28;20040;-57
2022/10/30 10:44:07;;;;;;;6.22;1.30;;;;;;;14.48;100.00;100665.16;5041330;28;20056;-58
2022/10/30 10:47:05;;;;;;;9.85;1.27;;;;;;;14.57;100.00;100669.22;5038595;28;20040;-52
2022/10/30 10:49:30;;;;;;;7.20;0.75;;;;;;;14.52;100.00;100663.69;5039258;28;20036;-56
2022/10/30 10:52:02;;;;;;;6.45;0.73;;;;;;;14.50;100.00;100654.25;5035253;28;20037;-55
2022/10/30 10:54:38;;;;;;;2.42;0.25;;;;;;;14.47;100.00;100654.69;5036187;28;20034;-54
2022/10/30 10:57:05;;;;;;;4.78;0.60;;;;;;;14.51;100.00;100664.72;5038967;28;20043;-53
2022/10/30 10:59:33;;;;;;;3.90;0.65;;;;;;;14.54;100.00;100660.84;5034491;28;20029;-53
2022/10/30 11:02:04;;;;;;;10.15;1.45;;;;;;;14.53;100.00;100657.34;5038027;28;20025;-53
2022/10/30 11:04:38;;;;;;;5.00;0.30;;;;;;;14.57;100.00;100655.88;5033824;28;20040;-51
2022/10/30 11:07:17;;;;;;;2.80;0.45;;;;;;;14.55;100.00;100647.28;5032682;28;20029;-50
2022/10/30 11:09:43;;;;;;;5.22;1.33;;;;;;;14.61;100.00;100649.09;5026847;28;20682;-49
2022/10/30 11:12:09;;;;;;;6.28;0.77;;;;;;;14.68;100.00;100650.91;5022983;28;20448;-52
2022/10/30 11:14:36;;;;;;;9.15;0.90;;;;;;;14.70;100.00;100635.50;5027540;28;20100;-46
2022/10/30 11:17:18;;;;;;;4.05;0.38;;;;;;;14.81;100.00;100637.47;5032005;28;20522;-50
2022/10/30 11:19:47;;;;;;;3.05;0.82;;;;;;;14.85;100.00;100637.88;5033731;28;20037;-52
2022/10/30 11:22:25;;;;;;;8.75;0.80;;;;;;;14.85;100.00;100633.34;5035509;28;20379;-52
2022/10/30 11:24:50;;;;;;;3.55;0.35;;;;;;;14.82;100.00;100623.13;5032860;28;20033;-56